createdAt,value
2019-05-07T00:02:13.358Z,64
2019-05-07T00:07:12.890Z,64
2019-05-07T00:12:12.428Z,64
2019-05-07T00:17:09.838Z,65
2019-05-07T00:22:12.404Z,65
2019-05-07T00:27:09.738Z,65
2019-05-07T00:32:11.971Z,65
2019-05-07T00:37:10.235Z,65
2019-05-07T00:42:10.177Z,65
2019-05-07T00:47:10.015Z,65
2019-05-07T00:52:11.533Z,66
2019-05-07T00:57:12.418Z,66
2019-05-07T01:02:09.296Z,66
2019-05-07T01:07:12.238Z,66
2019-05-07T01:12:08.848Z,66
2019-05-07T01:17:09.918Z,66
2019-05-07T01:22:12.471Z,66
2019-05-07T01:27:09.673Z,66
2019-05-07T01:32:07.792Z,66
2019-05-07T01:37:09.375Z,67
2019-05-07T01:42:10.026Z,67
2019-05-07T01:47:10.032Z,67
2019-05-07T01:52:10.262Z,67
2019-05-07T01:57:09.665Z,67
2019-05-07T02:02:09.294Z,67
2019-05-07T02:07:11.929Z,67
2019-05-07T02:12:10.605Z,68
2019-05-07T02:17:09.426Z,68
2019-05-07T02:22:10.167Z,68
2019-05-07T02:27:09.435Z,68
2019-05-07T02:32:13.209Z,68
2019-05-07T02:37:10.099Z,68
2019-05-07T02:42:12.909Z,69
2019-05-07T02:47:09.120Z,69
2019-05-07T02:52:13.224Z,69
2019-05-07T02:57:09.369Z,69
2019-05-07T03:02:13.888Z,69
2019-05-07T03:07:09.362Z,69
2019-05-07T03:12:12.928Z,69
2019-05-07T03:17:12.959Z,69
2019-05-07T03:22:13.931Z,69
2019-05-07T03:27:13.817Z,69
2019-05-07T03:32:10.544Z,70
2019-05-07T03:37:13.630Z,70
2019-05-07T03:42:13.111Z,70
2019-05-07T03:47:13.481Z,70
2019-05-07T03:52:13.520Z,70
2019-05-07T03:57:12.759Z,70
2019-05-07T04:02:09.310Z,70
2019-05-07T04:07:09.505Z,70
2019-05-07T04:12:13.182Z,71
2019-05-07T04:17:21.174Z,71
2019-05-07T04:22:08.304Z,71
2019-05-07T04:27:12.995Z,71
2019-05-07T04:32:14.074Z,71
2019-05-07T04:37:13.003Z,71
2019-05-07T04:42:08.517Z,71
2019-05-07T04:47:13.321Z,71
2019-05-07T04:52:12.518Z,71
2019-05-07T04:57:12.846Z,71
2019-05-07T05:02:13.494Z,71
2019-05-07T05:07:13.239Z,71
2019-05-07T05:12:10.178Z,71
2019-05-07T05:17:12.996Z,71
2019-05-07T05:32:11.990Z,71
2019-05-07T05:37:09.454Z,71
2019-05-07T05:47:11.739Z,71
2019-05-07T05:52:12.402Z,71
2019-05-07T05:57:08.761Z,71
2019-05-07T06:02:12.120Z,71
2019-05-07T06:07:13.987Z,71
2019-05-07T06:12:12.363Z,71
2019-05-07T06:17:08.442Z,71
2019-05-07T06:22:12.784Z,71
2019-05-07T06:32:12.441Z,71
2019-05-07T06:37:11.841Z,70
2019-05-07T06:47:09.063Z,70
2019-05-07T06:52:12.256Z,70
2019-05-07T06:57:09.719Z,69
2019-05-07T07:02:08.709Z,69
2019-05-07T07:12:09.605Z,69
2019-05-07T07:17:12.868Z,68
2019-05-07T07:22:12.908Z,68
2019-05-07T07:27:10.414Z,68
2019-05-07T07:37:13.508Z,67
2019-05-07T07:42:12.405Z,67
2019-05-07T07:52:08.023Z,66
2019-05-07T08:07:09.109Z,65
2019-05-07T08:12:12.541Z,64
2019-05-07T08:17:10.078Z,64
2019-05-07T08:22:12.056Z,64
2019-05-07T08:27:12.855Z,63
2019-05-07T08:32:09.787Z,63
2019-05-07T08:37:12.031Z,62
2019-05-07T08:52:11.994Z,61
2019-05-07T09:02:12.372Z,60
2019-05-07T09:22:12.738Z,58
2019-05-07T09:32:09.128Z,56
2019-05-07T09:42:12.197Z,56
2019-05-07T09:47:09.045Z,55
2019-05-07T09:52:12.275Z,55
2019-05-07T09:57:27.715Z,54
2019-05-07T10:02:09.539Z,54
2019-05-07T10:07:09.700Z,54
2019-05-07T10:12:12.191Z,53
2019-05-07T10:22:09.536Z,52
2019-05-07T10:27:12.476Z,52
2019-05-07T10:32:12.613Z,51
2019-05-07T10:37:08.640Z,51
2019-05-07T10:42:09.030Z,51
2019-05-07T10:47:12.097Z,50
2019-05-07T10:52:09.664Z,50
2019-05-07T10:57:09.546Z,49
2019-05-07T11:02:08.741Z,49
2019-05-07T11:07:09.853Z,48
2019-05-07T11:12:12.605Z,48
2019-05-07T11:17:11.917Z,48
2019-05-07T11:22:11.524Z,48
2019-05-07T11:27:09.396Z,47
2019-05-07T11:32:12.240Z,47
2019-05-07T11:37:11.957Z,46
2019-05-07T11:42:09.853Z,46
2019-05-07T11:47:12.287Z,45
2019-05-07T11:52:10.053Z,45
2019-05-07T12:02:12.061Z,44
2019-05-07T12:07:11.850Z,44
2019-05-07T12:22:12.115Z,43
2019-05-07T12:27:11.939Z,43
2019-05-07T12:37:09.211Z,42
2019-05-07T12:42:11.885Z,42
2019-05-07T12:47:09.256Z,42
2019-05-07T12:57:11.773Z,41
2019-05-07T13:07:11.645Z,41
2019-05-07T13:12:10.396Z,41
2019-05-07T13:17:09.663Z,41
2019-05-07T13:22:09.704Z,41
2019-05-07T13:27:09.791Z,41
2019-05-07T13:32:12.104Z,40
2019-05-07T13:37:09.372Z,40
2019-05-07T13:42:09.940Z,40
2019-05-07T13:47:12.387Z,40
2019-05-07T13:52:07.533Z,40
2019-05-07T13:57:12.048Z,40
2019-05-07T14:02:13.825Z,40
2019-05-07T14:07:12.627Z,40
2019-05-07T14:12:08.248Z,40
2019-05-07T14:17:12.711Z,39
2019-05-07T14:22:16.388Z,39
2019-05-07T14:32:12.696Z,39
2019-05-07T14:37:10.201Z,39
2019-05-07T14:42:12.807Z,39
2019-05-07T14:47:12.866Z,39
2019-05-07T14:52:12.229Z,39
2019-05-07T14:57:10.371Z,39
2019-05-07T15:02:12.084Z,39
2019-05-07T15:07:11.503Z,39
2019-05-07T15:12:14.003Z,39
2019-05-07T15:17:09.376Z,39
2019-05-07T15:27:09.018Z,39
2019-05-07T15:32:09.190Z,39
2019-05-07T15:37:12.257Z,39
2019-05-07T15:42:10.680Z,38
2019-05-07T15:47:08.355Z,38
2019-05-07T15:52:12.516Z,38
2019-05-07T16:02:12.241Z,38
2019-05-07T16:17:09.806Z,38
2019-05-07T16:22:10.176Z,38
2019-05-07T16:27:12.189Z,38
2019-05-07T16:32:09.896Z,38
2019-05-07T16:37:12.314Z,38
2019-05-07T16:42:09.704Z,38
2019-05-07T16:47:12.128Z,38
2019-05-07T17:02:09.536Z,38
2019-05-07T17:07:10.156Z,38
2019-05-07T17:12:10.358Z,37
2019-05-07T17:17:09.366Z,37
2019-05-07T17:22:09.139Z,37
2019-05-07T17:27:11.921Z,37
2019-05-07T17:32:09.423Z,37
2019-05-07T17:37:12.620Z,37
2019-05-07T17:52:10.587Z,37
2019-05-07T17:57:14.279Z,38
2019-05-07T18:02:09.831Z,38
2019-05-07T18:07:12.013Z,38
2019-05-07T18:12:12.100Z,39
2019-05-07T18:17:09.828Z,39
2019-05-07T18:22:10.065Z,39
2019-05-07T18:27:10.176Z,40
2019-05-07T18:42:12.543Z,41
2019-05-07T18:47:09.998Z,41
2019-05-07T18:52:12.107Z,41
2019-05-07T18:57:08.883Z,41
2019-05-07T19:02:09.962Z,42
2019-05-07T19:07:09.936Z,42
2019-05-07T19:12:12.897Z,42
2019-05-07T19:17:12.193Z,42
2019-05-07T19:27:12.642Z,43
2019-05-07T19:32:11.979Z,43
2019-05-07T19:37:09.687Z,43
2019-05-07T19:42:12.138Z,43
2019-05-07T19:47:12.690Z,43
2019-05-07T19:57:11.846Z,44
2019-05-07T20:12:09.036Z,45
2019-05-07T20:17:12.262Z,45
2019-05-07T20:22:12.768Z,45
2019-05-07T20:27:09.226Z,45
2019-05-07T20:32:08.529Z,46
2019-05-07T20:37:09.165Z,46
2019-05-07T20:42:12.414Z,46
2019-05-07T20:47:12.714Z,46
2019-05-07T20:52:09.943Z,47
2019-05-07T20:57:13.074Z,47
2019-05-07T21:02:11.852Z,48
2019-05-07T21:07:11.919Z,48
2019-05-07T21:12:12.609Z,48
2019-05-07T21:17:11.789Z,49
2019-05-07T21:22:10.308Z,49
2019-05-07T21:27:12.034Z,50
2019-05-07T21:32:12.355Z,50
2019-05-07T21:37:12.369Z,50
2019-05-07T21:42:13.953Z,50
2019-05-07T21:47:09.376Z,51
2019-05-07T21:52:12.647Z,51
2019-05-07T21:57:09.684Z,51
2019-05-07T22:02:10.063Z,51
2019-05-07T22:07:08.775Z,52
2019-05-07T22:12:12.105Z,52
2019-05-07T22:17:12.589Z,52
2019-05-07T22:22:12.375Z,53
2019-05-07T22:27:12.655Z,53
2019-05-07T22:32:11.757Z,53
2019-05-07T22:37:12.464Z,54
2019-05-07T22:42:11.890Z,54
2019-05-07T22:47:09.938Z,54
2019-05-07T22:52:12.816Z,55
2019-05-07T22:57:09.547Z,55
2019-05-07T23:02:12.235Z,55
2019-05-07T23:07:10.027Z,55
2019-05-07T23:12:09.594Z,56
2019-05-07T23:17:12.614Z,56
2019-05-07T23:22:13.415Z,56
2019-05-07T23:27:12.146Z,56
2019-05-07T23:32:12.542Z,56
2019-05-07T23:37:11.747Z,56
2019-05-07T23:42:07.871Z,56
2019-05-07T23:47:12.182Z,57
2019-05-07T23:52:12.952Z,57
2019-05-07T23:57:15.002Z,57
